Neptune Voyager — C6FU7 — position and weather

sailwx.info

Track history (hours):
 
Tides and Currents Weather Stations Pressure Air Temp Water Temp Dewpoint Dewpoint Depression Visibility Wind Speed Wind Dir Waves Ship Positions

Neptune Voyager

Last reported at 2017-Mar-19 02:21 UTC. Time now 2017-Mar-30 02:53 UTC.
Position N 58°49' W 004°23'.
Warning: this ship's position is 11 days out of date.

Type: Ship. MMSI: 311482000.

Date/timePositionNaut miles runAvg speedWind from/ knotsBaromVisibWave heightAir tempDewpointWater temp
2017-Mar-19 02:21N 58°49' W 004°23'911.6
2017-Mar-19 01:33N 58°49' W 004°05'1111.4
2017-Mar-19 00:33N 58°46' W 003°43'1111.2
2017-Mar-18 23:33N 58°45' W 003°22'10 9.6
2017-Mar-18 22:33N 58°47' W 003°04'7 7.0
2017-Mar-18 21:33N 58°54' W 003°06'0 0.2
2017-Mar-18 20:33N 58°54' W 003°05'0 0.0
2017-Mar-18 19:33N 58°54' W 003°05'0 0.0
2017-Mar-18 09:24N 58°54' W 003°05'0 0.1
2017-Mar-18 08:33N 58°54' W 003°06'0 0.1
2017-Mar-18 07:33N 58°54' W 003°06'0 0.0
2017-Mar-18 06:26N 58°54' W 003°06'0 0.0
2017-Mar-18 05:33N 58°54' W 003°06'0 0.0
2017-Mar-18 04:30N 58°54' W 003°06'0 0.0
2017-Mar-18 03:24N 58°54' W 003°06'0 0.0
2017-Mar-18 02:27N 58°54' W 003°06'0 0.0
2017-Mar-18 01:19N 58°54' W 003°06'0 0.0
2017-Mar-18 00:31N 58°54' W 003°06'0 0.0
2017-Mar-17 23:07N 58°54' W 003°06'0 0.5
2017-Mar-17 22:31N 58°54' W 003°05'0 0.2
2017-Mar-17 21:31N 58°54' W 003°06'0 0.3
2017-Mar-17 20:31N 58°54' W 003°06'0 0.4
2017-Mar-17 19:31N 58°54' W 003°05'0 0.1
2017-Mar-17 18:28N 58°54' W 003°05'0 0.1
2017-Mar-17 17:31N 58°54' W 003°05'0 0.2
2017-Mar-17 16:31N 58°54' W 003°05'0 0.1
2017-Mar-17 15:31N 58°54' W 003°05'0 0.1
2017-Mar-17 14:31N 58°54' W 003°05'0 0.0
2017-Mar-17 13:31N 58°54' W 003°05'0 0.0
2017-Mar-17 12:31N 58°54' W 003°05'0 0.0
2017-Mar-17 11:31N 58°54' W 003°05'0 0.1
2017-Mar-17 10:31N 58°54' W 003°05'0 0.1
2017-Mar-17 09:31N 58°54' W 003°05'0 0.1
2017-Mar-17 08:31N 58°54' W 003°05'0 0.1
2017-Mar-17 07:31N 58°54' W 003°05'0 0.1
2017-Mar-17 06:31N 58°54' W 003°05'0 0.1
2017-Mar-17 05:31N 58°54' W 003°05'0 0.0
2017-Mar-17 04:31N 58°54' W 003°05'0 0.1
2017-Mar-17 03:31N 58°54' W 003°05'0 0.2
2017-Mar-17 02:31N 58°54' W 003°05'0 0.1
2017-Mar-17 01:31N 58°54' W 003°05'0 0.1
2017-Mar-17 00:31N 58°54' W 003°05'0 0.0
2017-Mar-16 23:31N 58°54' W 003°05'0 0.1
2017-Mar-16 22:31N 58°54' W 003°05'0 0.0
2017-Mar-16 21:28N 58°54' W 003°05'0 0.1
2017-Mar-16 20:28N 58°54' W 003°05'0 0.0
2017-Mar-16 19:31N 58°54' W 003°05'0 0.1
2017-Mar-16 18:31N 58°54' W 003°05'0 0.1
2017-Mar-16 17:31N 58°54' W 003°05'0 0.0
2017-Mar-16 16:31N 58°54' W 003°05'0 0.0
2017-Mar-16 15:31N 58°54' W 003°05'0 0.1
2017-Mar-16 14:31N 58°54' W 003°05'0 0.0
2017-Mar-16 13:31N 58°54' W 003°05'0 0.1
2017-Mar-16 12:31N 58°54' W 003°05'0 0.0
2017-Mar-16 11:31N 58°54' W 003°05'0 0.1
2017-Mar-16 10:31N 58°54' W 003°05'0 0.1
2017-Mar-16 09:31N 58°54' W 003°05'0 0.0
2017-Mar-16 08:31N 58°54' W 003°05'0 0.1
2017-Mar-16 07:28N 58°54' W 003°05'0 0.0
2017-Mar-16 06:31N 58°54' W 003°05'0 0.0
2017-Mar-16 05:28N 58°54' W 003°05'0 0.0
2017-Mar-16 04:31N 58°54' W 003°05'0 0.0
2017-Mar-16 03:28N 58°54' W 003°05'0 0.1
2017-Mar-16 02:31N 58°54' W 003°06'0 0.0
2017-Mar-16 01:31N 58°54' W 003°06'0 0.2
2017-Mar-16 00:31N 58°54' W 003°05'0 0.0
2017-Mar-15 23:31N 58°54' W 003°05'0 0.0
2017-Mar-15 22:31N 58°54' W 003°05'0 0.0
2017-Mar-15 21:31N 58°54' W 003°05'0 0.1
2017-Mar-15 20:31N 58°54' W 003°05'0 0.0
2017-Mar-15 19:31N 58°54' W 003°05'0 0.2
2017-Mar-15 18:31N 58°54' W 003°06'0 0.0
2017-Mar-15 17:31N 58°54' W 003°06'0 0.0
2017-Mar-15 16:31N 58°54' W 003°06'0 0.4
2017-Mar-15 15:33N 58°54' W 003°05'1 1.2
2017-Mar-15 14:33N 58°55' W 003°03'0 0.0
2017-Mar-15 13:33N 58°55' W 003°03'0 0.0
2017-Mar-15 12:33N 58°55' W 003°03'0 0.0
2017-Mar-15 11:33N 58°55' W 003°03'0 0.0
2017-Mar-15 10:33N 58°55' W 003°03'0 0.0
2017-Mar-15 09:33N 58°55' W 003°03'0 0.1
2017-Mar-15 08:33N 58°55' W 003°03'0 0.1
2017-Mar-15 07:33N 58°55' W 003°03'0 0.0
2017-Mar-15 06:33N 58°55' W 003°03'0 0.1
2017-Mar-15 05:33N 58°55' W 003°03'0 0.0
2017-Mar-15 04:33N 58°55' W 003°03'0 0.0
2017-Mar-15 03:30N 58°55' W 003°03'0 0.0
2017-Mar-15 02:30N 58°55' W 003°03'0 0.1
2017-Mar-15 01:33N 58°55' W 003°03'0 0.0
2017-Mar-15 00:33N 58°55' W 003°03'0 0.0
2017-Mar-14 23:33N 58°55' W 003°03'0 0.1
2017-Mar-14 22:33N 58°55' W 003°03'0 0.0
2017-Mar-14 21:33N 58°55' W 003°03'0 0.0
2017-Mar-14 20:33N 58°55' W 003°03'0 0.0
2017-Mar-14 19:33N 58°55' W 003°03'0 0.0
2017-Mar-14 18:33N 58°55' W 003°03'0 0.1
2017-Mar-14 17:33N 58°55' W 003°03'0 0.1
2017-Mar-14 16:33N 58°55' W 003°03'0 0.1
2017-Mar-14 15:33N 58°55' W 003°03'0 0.2
2017-Mar-14 14:33N 58°55' W 003°03'0 0.0
2017-Mar-14 13:30N 58°55' W 003°03'0 0.0
2017-Mar-14 12:30N 58°55' W 003°03'0 0.1
2017-Mar-14 11:30N 58°55' W 003°03'0 0.1
2017-Mar-14 10:27N 58°55' W 003°03'0 0.1
2017-Mar-14 09:21N 58°55' W 003°03'0 0.1
2017-Mar-14 08:33N 58°55' W 003°03'0 0.0
2017-Mar-14 07:30N 58°55' W 003°03'0 0.0
2017-Mar-14 06:18N 58°55' W 003°03'0 0.0
2017-Mar-14 05:30N 58°55' W 003°03'0 0.0
2017-Mar-14 04:33N 58°55' W 003°03'0 0.0
2017-Mar-14 03:30N 58°55' W 003°03'0 0.1
2017-Mar-14 02:33N 58°55' W 003°03'0 0.0
2017-Mar-14 01:33N 58°55' W 003°03'0 0.0
2017-Mar-14 00:27N 58°55' W 003°03'0 0.2
2017-Mar-13 23:33N 58°55' W 003°03'0 0.0
2017-Mar-13 22:30N 58°55' W 003°03'0 0.0
2017-Mar-13 21:30N 58°55' W 003°03'0 0.0
2017-Mar-13 20:30N 58°55' W 003°03'0 0.0
2017-Mar-13 19:30N 58°55' W 003°03'0 0.1
2017-Mar-13 18:33N 58°55' W 003°03'0 0.1
2017-Mar-13 17:30N 58°55' W 003°03'0 0.0
2017-Mar-13 16:30N 58°55' W 003°03'0 0.2
2017-Mar-13 15:33N 58°55' W 003°03'0 0.0
2017-Mar-13 14:30N 58°55' W 003°03'0 0.0
2017-Mar-13 13:30N 58°55' W 003°03'0 0.2
2017-Mar-13 12:30N 58°55' W 003°03'0 0.0
2017-Mar-13 11:33N 58°55' W 003°03'0 0.0
2017-Mar-13 10:30N 58°55' W 003°03'0 0.0
2017-Mar-13 09:30N 58°55' W 003°03'0 0.0
2017-Mar-13 08:33N 58°55' W 003°03'0 0.1
2017-Mar-13 07:33N 58°55' W 003°03'0 0.1
2017-Mar-13 06:33N 58°55' W 003°03'0 0.1
2017-Mar-13 05:33N 58°55' W 003°03'0 0.1
2017-Mar-13 04:33N 58°55' W 003°03'0 0.0
2017-Mar-13 03:33N 58°55' W 003°03'0 0.0
2017-Mar-13 02:21N 58°55' W 003°03'0 0.0
2017-Mar-13 01:33N 58°55' W 003°03'0 0.1
2017-Mar-13 00:21N 58°55' W 003°03'0 0.0
2017-Mar-12 23:30N 58°55' W 003°03'0 0.0
2017-Mar-12 22:30N 58°55' W 003°03'0 0.1
2017-Mar-12 21:33N 58°55' W 003°03'0 0.0
2017-Mar-12 20:33N 58°55' W 003°03'0 0.0
2017-Mar-12 19:27N 58°55' W 003°03'0 0.0
2017-Mar-12 18:30N 58°55' W 003°03'0 0.0
2017-Mar-12 17:30N 58°55' W 003°03'0 0.0
2017-Mar-12 16:33N 58°55' W 003°03'0 0.1
2017-Mar-12 15:33N 58°55' W 003°03'0 0.0
2017-Mar-12 14:30N 58°55' W 003°03'0 0.0
2017-Mar-12 13:33N 58°55' W 003°04'0 0.1
2017-Mar-12 12:27N 58°55' W 003°04'0 0.0
2017-Mar-12 11:33N 58°55' W 003°04'0 0.0
2017-Mar-12 10:33N 58°55' W 003°04'0 0.0
2017-Mar-12 09:33N 58°55' W 003°04'0 0.0
2017-Mar-12 08:33N 58°55' W 003°04'0 0.1
2017-Mar-12 07:33N 58°55' W 003°04'0 0.1
2017-Mar-12 06:33N 58°55' W 003°04'0 0.1
2017-Mar-12 05:33N 58°55' W 003°04'0 0.1
2017-Mar-12 04:33N 58°55' W 003°04'0 0.1
2017-Mar-12 03:33N 58°55' W 003°04'0 0.0
2017-Mar-12 02:33N 58°55' W 003°04'0 0.0
2017-Mar-12 01:33N 58°55' W 003°04'0 0.1
2017-Mar-12 00:30N 58°55' W 003°04'0 0.0
2017-Mar-11 23:33N 58°55' W 003°04'0 0.0
2017-Mar-11 22:33N 58°55' W 003°04'0 0.0
2017-Mar-11 21:33N 58°55' W 003°04'0 0.0
2017-Mar-11 20:33N 58°55' W 003°04'0 0.0
2017-Mar-11 19:33N 58°55' W 003°04'0 0.0
2017-Mar-11 18:33N 58°55' W 003°04'0 0.0
2017-Mar-11 17:33N 58°55' W 003°04'0 0.1
2017-Mar-11 16:33N 58°55' W 003°04'0 0.2
2017-Mar-11 15:33N 58°55' W 003°03'0 0.0
2017-Mar-11 14:33N 58°55' W 003°03'0 0.1
2017-Mar-11 13:33N 58°55' W 003°03'0 0.0
2017-Mar-11 12:33N 58°55' W 003°03'0 0.1
2017-Mar-11 11:33N 58°55' W 003°03'0 0.0
2017-Mar-11 10:33N 58°55' W 003°03'0 0.1
2017-Mar-11 09:33N 58°55' W 003°03'0 0.1
2017-Mar-11 08:33N 58°55' W 003°03'0 0.0
2017-Mar-11 07:33N 58°55' W 003°03'0 0.0
2017-Mar-11 06:33N 58°55' W 003°03'0 0.0
2017-Mar-11 05:30N 58°55' W 003°03'0 0.1
2017-Mar-11 04:33N 58°55' W 003°04'0 0.0
2017-Mar-11 03:33N 58°55' W 003°04'0 0.1
2017-Mar-11 02:30N 58°55' W 003°04'0 0.1
2017-Mar-11 01:33N 58°55' W 003°04'0 0.0
2017-Mar-11 00:33N 58°55' W 003°04'0 0.1
2017-Mar-10 23:33N 58°55' W 003°04'0 0.0
2017-Mar-10 22:33N 58°55' W 003°04'0 0.0
2017-Mar-10 21:33N 58°55' W 003°04'0 0.0
2017-Mar-10 20:33N 58°55' W 003°04'0 0.0
2017-Mar-10 19:33N 58°55' W 003°04'0 0.0
2017-Mar-10 18:33N 58°55' W 003°04'0 0.0
2017-Mar-10 17:33N 58°55' W 003°04'0 0.1
2017-Mar-10 16:33N 58°55' W 003°04'0 0.0
2017-Mar-10 15:33N 58°55' W 003°04'0 0.0
2017-Mar-10 14:30N 58°55' W 003°04'0 0.0
2017-Mar-10 13:33N 58°55' W 003°04'0 0.0
2017-Mar-10 12:33N 58°55' W 003°04'0 0.1
2017-Mar-10 11:33N 58°55' W 003°04'5 4.9
2017-Mar-10 10:33N 58°50' W 003°03'8 7.9
2017-Mar-10 09:34N 58°42' W 003°03'8 8.5
2017-Mar-10 08:34N 58°36' W 002°51'7 7.3
2017-Mar-10 07:34N 58°32' W 002°39'6 5.8
2017-Mar-10 06:33N 58°30' W 002°29'6 2.6
2017-Mar-10 04:20N 58°34' W 002°22'4 0.8
2017-Mar-09 23:32N 58°30' W 002°20'1 0.8
2017-Mar-09 22:33N 58°30' W 002°21'  
Track history (hours):
 
Tides and Currents Weather Stations Pressure Air Temp Water Temp Dewpoint Dewpoint Depression Visibility Wind Speed Wind Dir Waves Ship Positions

Neptune Voyager

Last reported at 2017-Mar-19 02:21 UTC. Time now 2017-Mar-30 02:53 UTC.
Position N 58°49' W 004°23'.
Warning: this ship's position is 11 days out of date.

Type: Ship. MMSI: 311482000.

Date/timePositionNaut miles runAvg speedWind from/ knotsBaromVisibWave heightAir tempDewpointWater temp
2017-Mar-19 02:21N 58°49' W 004°23'911.6
2017-Mar-19 01:33N 58°49' W 004°05'1111.4
2017-Mar-19 00:33N 58°46' W 003°43'1111.2
2017-Mar-18 23:33N 58°45' W 003°22'10 9.6
2017-Mar-18 22:33N 58°47' W 003°04'7 7.0
2017-Mar-18 21:33N 58°54' W 003°06'0 0.2
2017-Mar-18 20:33N 58°54' W 003°05'0 0.0
2017-Mar-18 19:33N 58°54' W 003°05'0 0.0
2017-Mar-18 09:24N 58°54' W 003°05'0 0.1
2017-Mar-18 08:33N 58°54' W 003°06'0 0.1
2017-Mar-18 07:33N 58°54' W 003°06'0 0.0
2017-Mar-18 06:26N 58°54' W 003°06'0 0.0
2017-Mar-18 05:33N 58°54' W 003°06'0 0.0
2017-Mar-18 04:30N 58°54' W 003°06'0 0.0
2017-Mar-18 03:24N 58°54' W 003°06'0 0.0
2017-Mar-18 02:27N 58°54' W 003°06'0 0.0
2017-Mar-18 01:19N 58°54' W 003°06'0 0.0
2017-Mar-18 00:31N 58°54' W 003°06'0 0.0
2017-Mar-17 23:07N 58°54' W 003°06'0 0.5
2017-Mar-17 22:31N 58°54' W 003°05'0 0.2
2017-Mar-17 21:31N 58°54' W 003°06'0 0.3
2017-Mar-17 20:31N 58°54' W 003°06'0 0.4
2017-Mar-17 19:31N 58°54' W 003°05'0 0.1
2017-Mar-17 18:28N 58°54' W 003°05'0 0.1
2017-Mar-17 17:31N 58°54' W 003°05'0 0.2
2017-Mar-17 16:31N 58°54' W 003°05'0 0.1
2017-Mar-17 15:31N 58°54' W 003°05'0 0.1
2017-Mar-17 14:31N 58°54' W 003°05'0 0.0
2017-Mar-17 13:31N 58°54' W 003°05'0 0.0
2017-Mar-17 12:31N 58°54' W 003°05'0 0.0
2017-Mar-17 11:31N 58°54' W 003°05'0 0.1
2017-Mar-17 10:31N 58°54' W 003°05'0 0.1
2017-Mar-17 09:31N 58°54' W 003°05'0 0.1
2017-Mar-17 08:31N 58°54' W 003°05'0 0.1
2017-Mar-17 07:31N 58°54' W 003°05'0 0.1
2017-Mar-17 06:31N 58°54' W 003°05'0 0.1
2017-Mar-17 05:31N 58°54' W 003°05'0 0.0
2017-Mar-17 04:31N 58°54' W 003°05'0 0.1
2017-Mar-17 03:31N 58°54' W 003°05'0 0.2
2017-Mar-17 02:31N 58°54' W 003°05'0 0.1
2017-Mar-17 01:31N 58°54' W 003°05'0 0.1
2017-Mar-17 00:31N 58°54' W 003°05'0 0.0
2017-Mar-16 23:31N 58°54' W 003°05'0 0.1
2017-Mar-16 22:31N 58°54' W 003°05'0 0.0
2017-Mar-16 21:28N 58°54' W 003°05'0 0.1
2017-Mar-16 20:28N 58°54' W 003°05'0 0.0
2017-Mar-16 19:31N 58°54' W 003°05'0 0.1
2017-Mar-16 18:31N 58°54' W 003°05'0 0.1
2017-Mar-16 17:31N 58°54' W 003°05'0 0.0
2017-Mar-16 16:31N 58°54' W 003°05'0 0.0
2017-Mar-16 15:31N 58°54' W 003°05'0 0.1
2017-Mar-16 14:31N 58°54' W 003°05'0 0.0
2017-Mar-16 13:31N 58°54' W 003°05'0 0.1
2017-Mar-16 12:31N 58°54' W 003°05'0 0.0
2017-Mar-16 11:31N 58°54' W 003°05'0 0.1
2017-Mar-16 10:31N 58°54' W 003°05'0 0.1
2017-Mar-16 09:31N 58°54' W 003°05'0 0.0
2017-Mar-16 08:31N 58°54' W 003°05'0 0.1
2017-Mar-16 07:28N 58°54' W 003°05'0 0.0
2017-Mar-16 06:31N 58°54' W 003°05'0 0.0
2017-Mar-16 05:28N 58°54' W 003°05'0 0.0
2017-Mar-16 04:31N 58°54' W 003°05'0 0.0
2017-Mar-16 03:28N 58°54' W 003°05'0 0.1
2017-Mar-16 02:31N 58°54' W 003°06'0 0.0
2017-Mar-16 01:31N 58°54' W 003°06'0 0.2
2017-Mar-16 00:31N 58°54' W 003°05'0 0.0
2017-Mar-15 23:31N 58°54' W 003°05'0 0.0
2017-Mar-15 22:31N 58°54' W 003°05'0 0.0
2017-Mar-15 21:31N 58°54' W 003°05'0 0.1
2017-Mar-15 20:31N 58°54' W 003°05'0 0.0
2017-Mar-15 19:31N 58°54' W 003°05'0 0.2
2017-Mar-15 18:31N 58°54' W 003°06'0 0.0
2017-Mar-15 17:31N 58°54' W 003°06'0 0.0
2017-Mar-15 16:31N 58°54' W 003°06'0 0.4
2017-Mar-15 15:33N 58°54' W 003°05'1 1.2
2017-Mar-15 14:33N 58°55' W 003°03'0 0.0
2017-Mar-15 13:33N 58°55' W 003°03'0 0.0
2017-Mar-15 12:33N 58°55' W 003°03'0 0.0
2017-Mar-15 11:33N 58°55' W 003°03'0 0.0
2017-Mar-15 10:33N 58°55' W 003°03'0 0.0
2017-Mar-15 09:33N 58°55' W 003°03'0 0.1
2017-Mar-15 08:33N 58°55' W 003°03'0 0.1
2017-Mar-15 07:33N 58°55' W 003°03'0 0.0
2017-Mar-15 06:33N 58°55' W 003°03'0 0.1
2017-Mar-15 05:33N 58°55' W 003°03'0 0.0
2017-Mar-15 04:33N 58°55' W 003°03'0 0.0
2017-Mar-15 03:30N 58°55' W 003°03'0 0.0
2017-Mar-15 02:30N 58°55' W 003°03'0 0.1
2017-Mar-15 01:33N 58°55' W 003°03'0 0.0
2017-Mar-15 00:33N 58°55' W 003°03'0 0.0
2017-Mar-14 23:33N 58°55' W 003°03'0 0.1
2017-Mar-14 22:33N 58°55' W 003°03'0 0.0
2017-Mar-14 21:33N 58°55' W 003°03'0 0.0
2017-Mar-14 20:33N 58°55' W 003°03'0 0.0
2017-Mar-14 19:33N 58°55' W 003°03'0 0.0
2017-Mar-14 18:33N 58°55' W 003°03'0 0.1
2017-Mar-14 17:33N 58°55' W 003°03'0 0.1
2017-Mar-14 16:33N 58°55' W 003°03'0 0.1
2017-Mar-14 15:33N 58°55' W 003°03'0 0.2
2017-Mar-14 14:33N 58°55' W 003°03'0 0.0
2017-Mar-14 13:30N 58°55' W 003°03'0 0.0
2017-Mar-14 12:30N 58°55' W 003°03'0 0.1
2017-Mar-14 11:30N 58°55' W 003°03'0 0.1
2017-Mar-14 10:27N 58°55' W 003°03'0 0.1
2017-Mar-14 09:21N 58°55' W 003°03'0 0.1
2017-Mar-14 08:33N 58°55' W 003°03'0 0.0
2017-Mar-14 07:30N 58°55' W 003°03'0 0.0
2017-Mar-14 06:18N 58°55' W 003°03'0 0.0
2017-Mar-14 05:30N 58°55' W 003°03'0 0.0
2017-Mar-14 04:33N 58°55' W 003°03'0 0.0
2017-Mar-14 03:30N 58°55' W 003°03'0 0.1
2017-Mar-14 02:33N 58°55' W 003°03'0 0.0
2017-Mar-14 01:33N 58°55' W 003°03'0 0.0
2017-Mar-14 00:27N 58°55' W 003°03'0 0.2
2017-Mar-13 23:33N 58°55' W 003°03'0 0.0
2017-Mar-13 22:30N 58°55' W 003°03'0 0.0
2017-Mar-13 21:30N 58°55' W 003°03'0 0.0
2017-Mar-13 20:30N 58°55' W 003°03'0 0.0
2017-Mar-13 19:30N 58°55' W 003°03'0 0.1
2017-Mar-13 18:33N 58°55' W 003°03'0 0.1
2017-Mar-13 17:30N 58°55' W 003°03'0 0.0
2017-Mar-13 16:30N 58°55' W 003°03'0 0.2
2017-Mar-13 15:33N 58°55' W 003°03'0 0.0
2017-Mar-13 14:30N 58°55' W 003°03'0 0.0
2017-Mar-13 13:30N 58°55' W 003°03'0 0.2
2017-Mar-13 12:30N 58°55' W 003°03'0 0.0
2017-Mar-13 11:33N 58°55' W 003°03'0 0.0
2017-Mar-13 10:30N 58°55' W 003°03'0 0.0
2017-Mar-13 09:30N 58°55' W 003°03'0 0.0
2017-Mar-13 08:33N 58°55' W 003°03'0 0.1
2017-Mar-13 07:33N 58°55' W 003°03'0 0.1
2017-Mar-13 06:33N 58°55' W 003°03'0 0.1
2017-Mar-13 05:33N 58°55' W 003°03'0 0.1
2017-Mar-13 04:33N 58°55' W 003°03'0 0.0
2017-Mar-13 03:33N 58°55' W 003°03'0 0.0
2017-Mar-13 02:21N 58°55' W 003°03'0 0.0
2017-Mar-13 01:33N 58°55' W 003°03'0 0.1
2017-Mar-13 00:21N 58°55' W 003°03'0 0.0
2017-Mar-12 23:30N 58°55' W 003°03'0 0.0
2017-Mar-12 22:30N 58°55' W 003°03'0 0.1
2017-Mar-12 21:33N 58°55' W 003°03'0 0.0
2017-Mar-12 20:33N 58°55' W 003°03'0 0.0
2017-Mar-12 19:27N 58°55' W 003°03'0 0.0
2017-Mar-12 18:30N 58°55' W 003°03'0 0.0
2017-Mar-12 17:30N 58°55' W 003°03'0 0.0
2017-Mar-12 16:33N 58°55' W 003°03'0 0.1
2017-Mar-12 15:33N 58°55' W 003°03'0 0.0
2017-Mar-12 14:30N 58°55' W 003°03'0 0.0
2017-Mar-12 13:33N 58°55' W 003°04'0 0.1
2017-Mar-12 12:27N 58°55' W 003°04'0 0.0
2017-Mar-12 11:33N 58°55' W 003°04'0 0.0
2017-Mar-12 10:33N 58°55' W 003°04'0 0.0
2017-Mar-12 09:33N 58°55' W 003°04'0 0.0
2017-Mar-12 08:33N 58°55' W 003°04'0 0.1
2017-Mar-12 07:33N 58°55' W 003°04'0 0.1
2017-Mar-12 06:33N 58°55' W 003°04'0 0.1
2017-Mar-12 05:33N 58°55' W 003°04'0 0.1
2017-Mar-12 04:33N 58°55' W 003°04'0 0.1
2017-Mar-12 03:33N 58°55' W 003°04'0 0.0
2017-Mar-12 02:33N 58°55' W 003°04'0 0.0
2017-Mar-12 01:33N 58°55' W 003°04'0 0.1
2017-Mar-12 00:30N 58°55' W 003°04'0 0.0
2017-Mar-11 23:33N 58°55' W 003°04'0 0.0
2017-Mar-11 22:33N 58°55' W 003°04'0 0.0
2017-Mar-11 21:33N 58°55' W 003°04'0 0.0
2017-Mar-11 20:33N 58°55' W 003°04'0 0.0
2017-Mar-11 19:33N 58°55' W 003°04'0 0.0
2017-Mar-11 18:33N 58°55' W 003°04'0 0.0
2017-Mar-11 17:33N 58°55' W 003°04'0 0.1
2017-Mar-11 16:33N 58°55' W 003°04'0 0.2
2017-Mar-11 15:33N 58°55' W 003°03'0 0.0
2017-Mar-11 14:33N 58°55' W 003°03'0 0.1
2017-Mar-11 13:33N 58°55' W 003°03'0 0.0
2017-Mar-11 12:33N 58°55' W 003°03'0 0.1
2017-Mar-11 11:33N 58°55' W 003°03'0 0.0
2017-Mar-11 10:33N 58°55' W 003°03'0 0.1
2017-Mar-11 09:33N 58°55' W 003°03'0 0.1
2017-Mar-11 08:33N 58°55' W 003°03'0 0.0
2017-Mar-11 07:33N 58°55' W 003°03'0 0.0
2017-Mar-11 06:33N 58°55' W 003°03'0 0.0
2017-Mar-11 05:30N 58°55' W 003°03'0 0.1
2017-Mar-11 04:33N 58°55' W 003°04'0 0.0
2017-Mar-11 03:33N 58°55' W 003°04'0 0.1
2017-Mar-11 02:30N 58°55' W 003°04'0 0.1
2017-Mar-11 01:33N 58°55' W 003°04'0 0.0
2017-Mar-11 00:33N 58°55' W 003°04'0 0.1
2017-Mar-10 23:33N 58°55' W 003°04'0 0.0
2017-Mar-10 22:33N 58°55' W 003°04'0 0.0
2017-Mar-10 21:33N 58°55' W 003°04'0 0.0
2017-Mar-10 20:33N 58°55' W 003°04'0 0.0
2017-Mar-10 19:33N 58°55' W 003°04'0 0.0
2017-Mar-10 18:33N 58°55' W 003°04'0 0.0
2017-Mar-10 17:33N 58°55' W 003°04'0 0.1
2017-Mar-10 16:33N 58°55' W 003°04'0 0.0
2017-Mar-10 15:33N 58°55' W 003°04'0 0.0
2017-Mar-10 14:30N 58°55' W 003°04'0 0.0
2017-Mar-10 13:33N 58°55' W 003°04'0 0.0
2017-Mar-10 12:33N 58°55' W 003°04'0 0.1
2017-Mar-10 11:33N 58°55' W 003°04'5 4.9
2017-Mar-10 10:33N 58°50' W 003°03'8 7.9
2017-Mar-10 09:34N 58°42' W 003°03'8 8.5
2017-Mar-10 08:34N 58°36' W 002°51'7 7.3
2017-Mar-10 07:34N 58°32' W 002°39'6 5.8
2017-Mar-10 06:33N 58°30' W 002°29'6 2.6
2017-Mar-10 04:20N 58°34' W 002°22'4 0.8
2017-Mar-09 23:32N 58°30' W 002°20'1 0.8
2017-Mar-09 22:33N 58°30' W 002°21'  

Dump ship's entire track history